Country
Station

 

Weather  for  Millinocket, Millinocket Municipal Airport  -  United States    United States

  
19 °C (66 °F)
    
 
 

Current METAR for Millinocket, Millinocket Municipal Airport is :

KMLT 171053Z AUTO VRB04KT 4SM BR OVC003 19/18 A2985 RMK AO2 SLP111 T01890178

 

This is a report for Millinocket, Millinocket Municipal Airport - United States.
 
The report was made 28 minutes ago, at 10:53 UTC .
The wind was blowing at a speed of 2.1 meters per second (4.6 miles per hour) from variable directions.
 
The temperature was 19 °C (66 °F), with a dew-point at 18 °C (64 °F).
The atmospheric pressure was 1011 hPa (29.85 inHg).
The relative humidity was 93.9%.
 
The sky was overcast from a height of 91 meter (300 feet)
 
The overall visibility was 6.4 kilometers (4.0 miles).
 
Currently mist.

 
 
 
 

Country :   A   B   C   D   E   F   G   H   I   J   K   L   M   N   O   P   Q   R   S   T   U   V   W   Y   Z

 

Site Info  |  Disclaimer  |  Credits  |  Privacy
Contact us  |  Add to favorites
© 2013-2018 METARs - All rights reserved